Time;durP1;ratioP1;P1;durP2;ratioP2;P2;SDS_P1;SDS_P2;PMS_P1;PMS_P2;Temp;Humidity;BMP_temperature;BMP_pressure;BME280_temperature;BME280_humidity;BME280_pressure;Samples;Min_cycle;Max_cycle;Signal;HPM_P1;HPM_P2
2023/09/13 00:02:56;;;;;;;12.70;7.80;;;;;;;18.25;100.00;100878.75;6274460;28;20049;-75
2023/09/13 00:05:58;;;;;;;13.57;7.38;;;;;;;18.29;100.00;100876.66;6275093;28;20049;-75
2023/09/13 00:09:01;;;;;;;11.63;6.80;;;;;;;18.28;100.00;100873.16;6272118;28;20049;-75
2023/09/13 00:12:02;;;;;;;13.13;7.30;;;;;;;18.30;100.00;100873.03;6275345;28;20103;-76
2023/09/13 00:15:04;;;;;;;11.20;6.75;;;;;;;18.29;100.00;100874.00;6275046;28;20045;-75
2023/09/13 00:18:07;;;;;;;15.55;7.32;;;;;;;18.27;100.00;100866.16;6275021;28;20049;-75
2023/09/13 00:21:10;;;;;;;13.63;6.43;;;;;;;18.27;100.00;100874.16;6274944;28;20045;-75
2023/09/13 00:24:11;;;;;;;15.30;6.70;;;;;;;18.30;100.00;100871.22;6275118;28;20052;-75
2023/09/13 00:27:13;;;;;;;10.75;5.90;;;;;;;18.30;100.00;100873.88;6275071;28;20060;-78
2023/09/13 00:30:15;;;;;;;8.80;5.35;;;;;;;18.28;100.00;100880.31;6274785;28;20053;-76
2023/09/13 00:33:17;;;;;;;12.38;5.72;;;;;;;18.27;100.00;100868.00;6274998;28;20049;-77
2023/09/13 00:36:19;;;;;;;10.73;5.90;;;;;;;18.26;100.00;100875.13;6274766;28;20060;-77
2023/09/13 00:39:20;;;;;;;10.93;6.25;;;;;;;18.28;100.00;100873.16;6274718;28;20049;-77
2023/09/13 00:42:22;;;;;;;13.15;7.10;;;;;;;18.25;100.00;100873.41;6274778;28;20048;-77
2023/09/13 00:45:23;;;;;;;9.90;6.15;;;;;;;18.27;100.00;100875.97;6274851;28;20053;-75
2023/09/13 00:48:28;;;;;;;9.80;5.65;;;;;;;18.22;100.00;100871.88;6274365;28;20354;-76
2023/09/13 00:51:30;;;;;;;10.55;6.30;;;;;;;18.26;100.00;100869.81;6274755;28;20099;-75
2023/09/13 00:54:32;;;;;;;11.25;6.05;;;;;;;18.30;100.00;100873.88;6274390;28;20365;-75
2023/09/13 00:57:35;;;;;;;8.68;6.10;;;;;;;18.27;100.00;100878.63;6274764;28;20053;-75
2023/09/13 01:00:37;;;;;;;9.55;6.13;;;;;;;18.28;100.00;100869.66;6274373;28;20128;-75
2023/09/13 01:03:41;;;;;;;11.20;6.25;;;;;;;18.25;100.00;100876.06;6274498;28;20052;-75
2023/09/13 01:06:42;;;;;;;16.30;7.63;;;;;;;18.23;100.00;100870.91;6289047;22;20049;-76
2023/09/13 01:09:44;;;;;;;12.50;7.18;;;;;;;18.23;100.00;100873.56;6278240;28;20329;-75
2023/09/13 01:12:45;;;;;;;9.13;5.88;;;;;;;18.24;100.00;100869.06;6278956;28;20067;-76
2023/09/13 01:15:54;;;;;;;12.50;6.50;;;;;;;18.24;100.00;100871.72;6278785;28;20049;-76
2023/09/13 01:19:02;;;;;;;8.93;5.75;;;;;;;18.24;100.00;100874.41;6278681;28;20053;-73
2023/09/13 01:22:33;;;;;;;10.35;6.47;;;;;;;18.25;100.00;100868.94;6278970;28;20045;-73
2023/09/13 01:25:54;;;;;;;10.13;5.70;;;;;;;18.22;100.00;100868.38;6278682;28;20056;-76
2023/09/13 01:28:59;;;;;;;9.85;6.32;;;;;;;18.22;100.00;100866.56;6278544;28;20094;-76
2023/09/13 01:32:01;;;;;;;7.90;5.25;;;;;;;18.22;100.00;100863.91;6278493;28;20041;-76
2023/09/13 01:35:02;;;;;;;10.98;6.30;;;;;;;18.17;100.00;100863.44;6278560;28;20053;-76
2023/09/13 01:38:04;;;;;;;13.35;7.13;;;;;;;18.20;100.00;100863.16;6278121;28;20053;-74
2023/09/13 01:41:11;;;;;;;11.93;6.03;;;;;;;18.18;100.00;100869.59;6278516;28;20045;-73
2023/09/13 01:44:15;;;;;;;9.50;5.70;;;;;;;18.16;100.00;100863.53;6278340;28;20060;-75
2023/09/13 01:47:19;;;;;;;7.93;4.97;;;;;;;18.12;100.00;100865.63;6278225;28;20041;-76
2023/09/13 01:50:20;;;;;;;11.18;5.60;;;;;;;18.14;100.00;100857.53;6277845;28;20056;-76
2023/09/13 01:53:22;;;;;;;12.07;5.88;;;;;;;18.12;100.00;100857.66;6278027;28;20139;-76
2023/09/13 01:56:24;;;;;;;7.85;5.32;;;;;;;18.11;100.00;100858.59;6277991;28;20052;-76
2023/09/13 01:59:27;;;;;;;10.65;5.93;;;;;;;18.12;100.00;100859.44;6277554;28;20578;-73
2023/09/13 02:02:28;;;;;;;7.72;4.88;;;;;;;18.05;100.00;100860.94;6269054;28;20045;-75
2023/09/13 02:05:29;;;;;;;12.10;5.45;;;;;;;18.05;100.00;100858.28;6252707;28;20041;-73
2023/09/13 02:08:31;;;;;;;10.77;5.53;;;;;;;18.08;100.00;100855.38;6252828;28;20045;-76
2023/09/13 02:11:32;;;;;;;9.57;5.13;;;;;;;18.04;100.00;100857.44;6252650;28;20049;-76
2023/09/13 02:14:35;;;;;;;9.70;5.90;;;;;;;18.07;100.00;100856.34;6252795;28;20048;-74
2023/09/13 02:17:37;;;;;;;10.65;5.20;;;;;;;18.09;100.00;100857.06;6250913;28;20060;-76
2023/09/13 02:20:38;;;;;;;8.05;5.35;;;;;;;18.01;100.00;100857.69;6252341;28;20065;-73
2023/09/13 02:23:41;;;;;;;8.93;5.35;;;;;;;18.02;100.00;100859.38;6252622;28;20049;-73
2023/09/13 02:26:43;;;;;;;8.95;5.40;;;;;;;18.02;100.00;100861.19;6252309;28;20132;-76
2023/09/13 02:29:45;;;;;;;8.25;5.75;;;;;;;17.92;100.00;100871.75;6252095;28;20041;-74
2023/09/13 02:32:47;;;;;;;6.95;4.80;;;;;;;17.99;100.00;100870.28;6252260;28;20564;-76
2023/09/13 02:35:48;;;;;;;10.48;6.18;;;;;;;17.88;100.00;100865.81;6252189;28;20049;-76
2023/09/13 02:38:50;;;;;;;8.75;5.22;;;;;;;17.91;100.00;100875.38;6251997;28;20053;-76
2023/09/13 02:41:51;;;;;;;8.48;5.35;;;;;;;17.90;100.00;100871.03;6252391;28;20077;-76
2023/09/13 02:44:54;;;;;;;9.30;5.82;;;;;;;17.84;100.00;100879.50;6251821;28;20048;-73
2023/09/13 02:47:56;;;;;;;9.23;5.32;;;;;;;17.82;100.00;100892.09;6251767;28;20049;-74
2023/09/13 02:50:57;;;;;;;7.90;5.22;;;;;;;17.85;100.00;100886.50;6251799;28;20056;-76
2023/09/13 02:53:58;;;;;;;10.45;5.32;;;;;;;17.87;100.00;100890.72;6251856;28;20056;-76
2023/09/13 02:57:00;;;;;;;21.95;5.78;;;;;;;17.79;100.00;100884.34;6251877;28;20049;-73
2023/09/13 03:00:04;;;;;;;10.57;5.13;;;;;;;17.82;100.00;100898.25;6251390;28;20072;-76
2023/09/13 03:03:06;;;;;;;8.65;5.13;;;;;;;17.78;100.00;100899.47;6239779;28;20453;-73
2023/09/13 03:06:11;;;;;;;8.48;5.35;;;;;;;17.80;100.00;100899.31;6239839;28;20072;-76
2023/09/13 03:09:14;;;;;;;8.15;5.35;;;;;;;17.80;100.00;100892.19;6238145;28;20361;-73
2023/09/13 03:12:15;;;;;;;12.55;6.60;;;;;;;17.80;100.00;100894.84;6238774;28;20053;-73
2023/09/13 03:15:18;;;;;;;10.30;6.50;;;;;;;17.77;100.00;100891.63;6238842;28;20046;-74
2023/09/13 03:18:19;;;;;;;10.90;5.97;;;;;;;17.76;100.00;100890.78;6237772;28;20344;-73
2023/09/13 03:21:21;;;;;;;9.43;6.07;;;;;;;17.78;100.00;100891.47;6239183;28;20054;-76
2023/09/13 03:24:23;;;;;;;9.73;6.38;;;;;;;17.75;100.00;100887.25;6237640;28;20049;-73
2023/09/13 03:27:24;;;;;;;10.63;6.18;;;;;;;17.73;100.00;100898.97;6239378;28;20042;-73
2023/09/13 03:30:27;;;;;;;10.38;6.15;;;;;;;17.67;100.00;100894.16;6237094;28;20045;-73
2023/09/13 03:33:28;;;;;;;14.32;7.07;;;;;;;17.65;100.00;100888.94;6237074;28;20049;-76
2023/09/13 03:36:30;;;;;;;10.23;6.45;;;;;;;17.53;100.00;100884.59;6239216;28;20045;-73
2023/09/13 03:39:31;;;;;;;12.82;6.90;;;;;;;17.60;100.00;100879.66;6237214;28;20053;-73
2023/09/13 03:42:33;;;;;;;13.10;7.32;;;;;;;17.61;100.00;100876.03;6238953;28;20503;-75
2023/09/13 03:45:36;;;;;;;11.05;6.88;;;;;;;17.58;100.00;100878.94;6237699;28;20052;-76
2023/09/13 03:48:39;;;;;;;12.85;8.00;;;;;;;17.52;100.00;100884.72;6237788;28;20417;-76
2023/09/13 03:51:40;;;;;;;14.40;7.28;;;;;;;17.53;100.00;100881.94;6238400;28;20441;-76
2023/09/13 03:54:41;;;;;;;12.07;6.63;;;;;;;17.61;100.00;100879.53;6237352;28;21963;-76
2023/09/13 03:57:43;;;;;;;11.38;5.88;;;;;;;17.70;100.00;100876.13;6238628;28;20061;-76
2023/09/13 04:00:46;;;;;;;14.07;8.38;;;;;;;17.65;100.00;100869.50;6236471;28;20060;-75
2023/09/13 04:03:47;;;;;;;12.55;7.63;;;;;;;17.68;100.00;100863.94;6241418;28;20054;-75
2023/09/13 04:06:49;;;;;;;20.80;9.27;;;;;;;17.75;100.00;100865.13;6243973;28;20452;-75
2023/09/13 04:09:50;;;;;;;19.30;9.40;;;;;;;17.73;100.00;100854.66;6236693;28;20042;-75
2023/09/13 04:12:52;;;;;;;16.48;8.77;;;;;;;17.81;100.00;100861.16;6242452;28;20353;-75
2023/09/13 04:15:54;;;;;;;17.10;7.00;;;;;;;17.81;100.00;100866.47;6245352;28;20053;-75
2023/09/13 04:18:56;;;;;;;19.30;7.47;;;;;;;17.83;100.00;100860.03;6241104;28;20270;-75
2023/09/13 04:21:57;;;;;;;13.48;8.63;;;;;;;17.84;100.00;100860.88;6236526;28;20064;-75
2023/09/13 04:24:59;;;;;;;15.27;8.52;;;;;;;17.84;100.00;100858.22;6241286;28;20041;-75
2023/09/13 04:28:00;;;;;;;14.48;8.82;;;;;;;17.85;100.00;100865.22;6247545;28;20050;-75
2023/09/13 04:31:03;;;;;;;14.68;8.85;;;;;;;17.80;100.00;100870.94;6250263;28;20060;-75
2023/09/13 04:34:04;;;;;;;15.82;8.95;;;;;;;17.79;100.00;100871.06;6250065;28;20065;-75
2023/09/13 04:37:06;;;;;;;16.92;8.73;;;;;;;17.79;100.00;100863.94;6250236;28;20045;-75
2023/09/13 04:40:08;;;;;;;20.38;10.07;;;;;;;17.73;100.00;100875.03;6249844;28;20064;-75
2023/09/13 04:43:23;;;;;;;17.15;9.68;;;;;;;17.63;100.00;100874.09;6254872;28;20042;-75
2023/09/13 04:46:25;;;;;;;17.83;8.43;;;;;;;17.65;100.00;100877.47;6254830;28;20636;-75
2023/09/13 04:49:27;;;;;;;18.73;10.35;;;;;;;17.64;100.00;100889.06;6254033;28;20053;-75
2023/09/13 04:52:28;;;;;;;17.65;9.30;;;;;;;17.70;100.00;100888.56;6246835;28;20041;-75
2023/09/13 04:55:29;;;;;;;18.20;8.93;;;;;;;17.72;100.00;100886.66;6246655;28;20046;-75
2023/09/13 04:58:31;;;;;;;15.50;9.80;;;;;;;17.67;100.00;100892.34;6254252;28;20061;-75
2023/09/13 05:01:33;;;;;;;18.45;10.77;;;;;;;17.68;100.00;100886.03;6254734;28;20456;-75
2023/09/13 05:04:35;;;;;;;11.80;7.57;;;;;;;17.72;100.00;100899.94;6254230;28;20357;-75
2023/09/13 05:07:36;;;;;;;24.52;10.38;;;;;;;17.74;100.00;100896.19;6254319;28;20053;-75
2023/09/13 05:10:39;;;;;;;19.90;10.73;;;;;;;17.75;100.00;100900.53;6254186;28;20053;-76
2023/09/13 05:13:40;;;;;;;20.73;11.05;;;;;;;17.72;100.00;100895.47;6254047;28;20438;-75
2023/09/13 05:16:43;;;;;;;22.48;10.73;;;;;;;17.71;100.00;100893.78;6254157;28;20338;-76
2023/09/13 05:19:44;;;;;;;20.42;11.45;;;;;;;17.65;100.00;100888.94;6241608;28;20071;-75
2023/09/13 05:22:46;;;;;;;27.20;12.02;;;;;;;17.69;100.00;100897.50;6240828;28;20042;-75
2023/09/13 05:25:48;;;;;;;26.08;13.05;;;;;;;17.58;100.00;100901.03;6241639;28;20050;-76
2023/09/13 05:28:50;;;;;;;25.08;11.38;;;;;;;17.64;100.00;100903.19;6240776;28;20354;-77
2023/09/13 05:31:52;;;;;;;23.98;11.43;;;;;;;17.62;100.00;100899.84;6238228;28;20054;-77
2023/09/13 05:34:54;;;;;;;27.00;12.93;;;;;;;17.65;100.00;100906.69;6229529;28;20057;-77
2023/09/13 05:37:55;;;;;;;26.73;12.32;;;;;;;17.66;100.00;100916.34;6229090;28;20054;-77
2023/09/13 05:40:57;;;;;;;29.13;13.25;;;;;;;17.60;100.00;100908.88;6229182;28;20057;-77
2023/09/13 05:43:58;;;;;;;30.05;12.77;;;;;;;17.62;100.00;100913.13;6229138;28;20053;-77
2023/09/13 05:47:01;;;;;;;26.17;11.68;;;;;;;17.69;100.00;100908.16;6228831;28;20350;-77
2023/09/13 05:50:02;;;;;;;31.13;12.30;;;;;;;17.74;100.00;100913.97;6228892;28;20054;-77
2023/09/13 05:53:04;;;;;;;27.88;12.32;;;;;;;17.79;100.00;100919.75;6228688;28;20061;-76
2023/09/13 05:56:05;;;;;;;25.38;12.23;;;;;;;17.73;100.00;100923.75;6228878;28;20053;-77
2023/09/13 05:59:07;;;;;;;29.48;13.07;;;;;;;17.64;100.00;100929.78;6228375;28;20058;-76
2023/09/13 06:02:09;;;;;;;27.15;12.43;;;;;;;17.70;100.00;100931.94;6229352;28;20069;-76
2023/09/13 06:05:11;;;;;;;25.63;12.95;;;;;;;17.73;100.00;100925.53;6251621;28;20045;-77
2023/09/13 06:08:12;;;;;;;23.98;11.02;;;;;;;17.66;100.00;100927.81;6253018;28;20049;-76
2023/09/13 06:11:15;;;;;;;19.95;11.55;;;;;;;17.67;100.00;100928.69;6253082;28;20057;-76
2023/09/13 06:14:19;;;;;;;23.30;11.00;;;;;;;17.63;100.00;100940.53;6252945;28;20049;-76
2023/09/13 06:17:22;;;;;;;19.58;8.85;;;;;;;17.65;100.00;100927.97;6252918;28;20058;-76
2023/09/13 06:20:23;;;;;;;21.58;9.57;;;;;;;17.75;100.00;100935.09;6251634;28;20053;-76
2023/09/13 06:23:36;;;;;;;21.63;11.82;;;;;;;17.78;100.00;100936.69;6252637;28;20041;-77
2023/09/13 06:26:37;;;;;;;19.48;9.90;;;;;;;17.84;100.00;100940.66;6231550;28;20450;-77
2023/09/13 06:29:39;;;;;;;17.73;9.60;;;;;;;17.88;100.00;100948.25;6252304;28;20045;-77
2023/09/13 06:32:41;;;;;;;16.98;8.18;;;;;;;17.92;100.00;100951.50;6252406;28;20053;-77
2023/09/13 06:35:43;;;;;;;21.25;10.73;;;;;;;17.87;100.00;100956.38;6252517;28;20056;-77
2023/09/13 06:38:44;;;;;;;18.90;9.90;;;;;;;17.85;100.00;100961.81;6252095;28;20052;-77
2023/09/13 06:41:46;;;;;;;17.25;9.07;;;;;;;17.84;100.00;100967.22;6252343;28;20045;-77
2023/09/13 06:44:47;;;;;;;19.52;9.50;;;;;;;17.82;100.00;100970.03;6251926;28;20445;-77
2023/09/13 06:47:50;;;;;;;20.23;9.20;;;;;;;17.82;100.00;100970.03;6252109;28;20050;-77
2023/09/13 06:50:51;;;;;;;20.17;10.07;;;;;;;17.82;100.00;100966.53;6251987;28;20053;-76
2023/09/13 06:53:53;;;;;;;18.73;9.95;;;;;;;17.78;100.00;100971.25;6252182;28;20041;-76
2023/09/13 06:56:54;;;;;;;17.15;8.75;;;;;;;17.82;100.00;100977.16;6251716;28;20057;-76
2023/09/13 06:59:55;;;;;;;18.50;9.63;;;;;;;17.82;100.00;100972.69;6248895;28;20353;-76
2023/09/13 07:02:58;;;;;;;18.35;9.52;;;;;;;17.80;100.00;100973.75;6251398;28;20326;-77
2023/09/13 07:06:00;;;;;;;17.15;9.10;;;;;;;17.87;100.00;100980.28;6291746;22;20048;-74
2023/09/13 07:09:01;;;;;;;14.18;7.85;;;;;;;17.91;100.00;100989.72;6298983;28;20048;-75
2023/09/13 07:12:04;;;;;;;16.38;8.20;;;;;;;17.94;100.00;100994.78;6300808;28;20124;-75
2023/09/13 07:15:07;;;;;;;14.85;8.48;;;;;;;17.93;100.00;100993.94;6300959;28;20045;-75
2023/09/13 07:18:10;;;;;;;18.35;9.80;;;;;;;18.02;100.00;100991.50;6280429;28;20055;-74
2023/09/13 07:21:11;;;;;;;15.10;8.95;;;;;;;18.06;100.00;100998.28;6276088;28;20057;-74
2023/09/13 07:24:13;;;;;;;12.27;6.65;;;;;;;17.97;100.00;100995.38;6275989;28;20059;-73
2023/09/13 07:27:14;;;;;;;11.05;5.63;;;;;;;17.98;100.00;101004.19;6275932;28;20361;-74
2023/09/13 07:30:16;;;;;;;5.95;3.42;;;;;;;17.95;100.00;101012.44;6275712;28;20056;-74
2023/09/13 07:33:18;;;;;;;4.28;3.05;;;;;;;17.98;100.00;101012.16;6271827;28;20041;-74
2023/09/13 07:36:20;;;;;;;2.58;1.92;;;;;;;17.96;100.00;101022.09;6272652;28;20045;-72
2023/09/13 07:39:21;;;;;;;2.75;1.85;;;;;;;17.79;100.00;101025.25;6275542;28;20045;-72
2023/09/13 07:42:23;;;;;;;2.67;1.65;;;;;;;17.73;100.00;101029.22;6275796;28;20048;-73
2023/09/13 07:45:24;;;;;;;2.28;1.23;;;;;;;17.71;100.00;101039.09;6275861;28;20052;-73
2023/09/13 07:48:28;;;;;;;1.88;1.60;;;;;;;17.61;100.00;101035.47;6275420;28;20102;-74
2023/09/13 07:51:29;;;;;;;3.45;2.50;;;;;;;17.40;100.00;101044.19;6275539;28;20048;-74
2023/09/13 07:54:31;;;;;;;3.63;2.35;;;;;;;17.36;100.00;101041.88;6275635;28;20429;-73
2023/09/13 07:57:32;;;;;;;3.67;2.40;;;;;;;17.32;100.00;101049.22;6275396;28;20164;-72
2023/09/13 08:00:34;;;;;;;10.45;3.55;;;;;;;17.31;100.00;101062.63;6275269;28;20049;-71
2023/09/13 08:03:37;;;;;;;5.80;3.05;;;;;;;17.24;100.00;101064.91;6267002;28;20041;-73
2023/09/13 08:06:41;;;;;;;10.05;3.85;;;;;;;17.20;100.00;101064.28;6275059;28;20049;-72
2023/09/13 08:09:42;;;;;;;10.93;4.82;;;;;;;17.18;100.00;101066.22;6270442;28;20056;-73
2023/09/13 08:12:44;;;;;;;9.00;5.15;;;;;;;17.14;100.00;101075.38;6275240;28;20476;-73
2023/09/13 08:15:45;;;;;;;11.90;4.80;;;;;;;17.10;100.00;101075.72;6275866;28;20048;-73
2023/09/13 08:18:48;;;;;;;9.43;5.22;;;;;;;16.85;100.00;101088.19;6280363;28;20120;-73
2023/09/13 08:21:49;;;;;;;8.65;4.70;;;;;;;16.87;100.00;101099.53;6280358;28;20059;-72
2023/09/13 08:24:50;;;;;;;7.53;4.00;;;;;;;16.94;100.00;101099.91;6279956;28;20429;-73
2023/09/13 08:27:52;;;;;;;8.70;4.72;;;;;;;16.86;100.00;101111.13;6280314;28;20053;-73
2023/09/13 08:30:53;;;;;;;6.28;3.70;;;;;;;16.89;100.00;101110.03;6279992;28;20056;-75
2023/09/13 08:33:56;;;;;;;6.35;3.70;;;;;;;16.98;100.00;101118.16;6279960;28;20047;-74
2023/09/13 08:36:58;;;;;;;4.47;2.95;;;;;;;16.83;100.00;101121.97;6279843;28;20053;-74
2023/09/13 08:39:59;;;;;;;4.22;2.72;;;;;;;16.88;100.00;101124.28;6279868;28;20052;-71
2023/09/13 08:43:01;;;;;;;9.18;4.25;;;;;;;16.67;100.00;101134.63;6279759;28;20040;-71
2023/09/13 08:46:03;;;;;;;6.75;3.35;;;;;;;16.65;100.00;101150.66;6279653;28;20381;-71
2023/09/13 08:49:08;;;;;;;5.93;3.40;;;;;;;16.51;100.00;101158.75;6279540;28;20060;-72
2023/09/13 08:52:11;;;;;;;6.53;3.45;;;;;;;16.53;100.00;101154.19;6279882;28;20052;-73
2023/09/13 08:55:14;;;;;;;6.45;3.25;;;;;;;16.48;100.00;101153.66;6279563;28;20056;-71
2023/09/13 08:58:15;;;;;;;6.95;4.45;;;;;;;16.49;100.00;101166.00;6279201;28;20053;-70
2023/09/13 09:01:18;;;;;;;4.60;3.50;;;;;;;16.34;100.00;101148.50;6278004;28;20052;-71
2023/09/13 09:04:22;;;;;;;8.60;3.63;;;;;;;16.17;100.00;101158.50;6279102;28;20052;-69
2023/09/13 09:07:25;;;;;;;4.90;3.58;;;;;;;16.23;100.00;101165.19;6278850;28;20053;-69
2023/09/13 09:10:26;;;;;;;7.63;3.88;;;;;;;15.90;100.00;101168.38;6278617;28;20049;-71
2023/09/13 09:13:29;;;;;;;5.70;2.80;;;;;;;15.91;100.00;101178.88;6279110;28;20052;-71
2023/09/13 09:16:31;;;;;;;5.97;2.50;;;;;;;15.76;100.00;101189.66;6278902;28;20066;-69
2023/09/13 09:19:35;;;;;;;5.38;2.60;;;;;;;15.87;100.00;101195.09;6278851;28;20063;-70
2023/09/13 09:22:38;;;;;;;5.53;2.28;;;;;;;15.84;100.00;101195.28;6278868;28;20449;-70
2023/09/13 09:25:40;;;;;;;5.13;2.47;;;;;;;15.81;100.00;101208.78;6278966;28;20056;-70
2023/09/13 09:28:42;;;;;;;7.28;2.42;;;;;;;15.72;100.00;101210.25;6277929;28;20380;-70
2023/09/13 09:31:44;;;;;;;5.93;2.33;;;;;;;15.87;100.00;101224.25;6278794;28;20052;-70
2023/09/13 09:34:46;;;;;;;4.60;2.50;;;;;;;15.65;100.00;101225.69;6276738;28;20052;-70
2023/09/13 09:37:48;;;;;;;4.18;1.95;;;;;;;15.64;100.00;101223.16;6272893;28;20045;-70
2023/09/13 09:40:50;;;;;;;7.32;1.92;;;;;;;15.41;100.00;101219.34;6278319;28;20456;-76
2023/09/13 09:43:55;;;;;;;6.05;2.00;;;;;;;15.16;100.00;101220.94;6273788;28;20041;-71
2023/09/13 09:46:57;;;;;;;7.32;1.70;;;;;;;15.22;100.00;101233.78;6278253;28;20040;-70
2023/09/13 09:50:04;;;;;;;7.63;2.28;;;;;;;15.11;100.00;101246.88;6278026;28;20052;-69
2023/09/13 09:53:09;;;;;;;7.47;1.95;;;;;;;15.15;100.00;101252.81;6270524;28;20041;-69
2023/09/13 09:56:11;;;;;;;5.43;1.65;;;;;;;15.01;100.00;101255.50;6275507;28;20399;-72
2023/09/13 09:59:13;;;;;;;3.85;1.95;;;;;;;15.11;100.00;101252.16;6276595;28;20055;-70
2023/09/13 10:02:14;;;;;;;4.72;1.60;;;;;;;14.88;100.00;101255.44;6277754;28;20055;-70
2023/09/13 10:05:18;;;;;;;2.05;1.25;;;;;;;15.05;100.00;101263.16;6275403;28;20045;-70
2023/09/13 10:08:19;;;;;;;5.90;1.50;;;;;;;15.13;100.00;101270.63;6263599;28;20589;-70
2023/09/13 10:11:22;;;;;;;7.65;1.65;;;;;;;14.94;100.00;101266.50;6266475;28;20056;-70
2023/09/13 10:14:27;;;;;;;3.17;1.50;;;;;;;14.89;100.00;101280.94;6277342;28;20352;-70
2023/09/13 10:17:29;;;;;;;6.40;1.52;;;;;;;14.90;100.00;101283.50;6277470;28;20118;-71
2023/09/13 10:20:35;;;;;;;2.13;1.02;;;;;;;15.01;100.00;101272.22;6259755;28;20467;-70
2023/09/13 10:23:40;;;;;;;4.63;1.42;;;;;;;14.87;100.00;101281.03;6274737;28;20115;-69
2023/09/13 10:26:42;;;;;;;5.35;1.40;;;;;;;15.06;100.00;101280.72;6277239;28;20076;-70
2023/09/13 10:29:46;;;;;;;2.22;1.02;;;;;;;14.85;100.00;101280.31;6273730;28;20060;-70
2023/09/13 10:32:54;;;;;;;4.63;1.40;;;;;;;14.71;100.00;101293.50;6277227;28;20053;-70
2023/09/13 10:36:00;;;;;;;5.63;1.25;;;;;;;14.68;100.00;101272.56;6275876;28;20330;-68
2023/09/13 10:39:12;;;;;;;2.50;1.30;;;;;;;14.86;100.00;101275.84;6275337;28;20048;-74
2023/09/13 10:42:14;;;;;;;5.05;1.50;;;;;;;14.64;100.00;101293.06;6273590;28;20448;-76
2023/09/13 10:45:18;;;;;;;2.17;1.30;;;;;;;14.77;100.00;101293.16;6272272;28;20041;-69
2023/09/13 10:48:21;;;;;;;9.88;2.08;;;;;;;14.86;100.00;101304.97;6276280;28;20052;-70
2023/09/13 10:51:25;;;;;;;6.25;1.27;;;;;;;15.04;100.00;101306.47;6276640;28;20133;-70
2023/09/13 10:54:29;;;;;;;4.35;1.08;;;;;;;15.01;100.00;101304.00;6276600;28;20055;-70
2023/09/13 10:57:32;;;;;;;3.33;1.05;;;;;;;15.00;100.00;101304.09;6273806;28;20052;-70
2023/09/13 11:00:34;;;;;;;2.95;1.25;;;;;;;15.18;100.00;101313.53;6275946;28;20064;-69
2023/09/13 11:03:36;;;;;;;1.55;1.05;;;;;;;15.30;100.00;101311.88;6273498;28;20052;-70
2023/09/13 11:06:39;;;;;;;1.77;1.08;;;;;;;15.32;100.00;101305.53;6276270;28;20044;-70
2023/09/13 11:09:40;;;;;;;2.28;1.45;;;;;;;15.39;100.00;101308.63;6276090;28;20053;-69
2023/09/13 11:12:44;;;;;;;4.03;1.10;;;;;;;15.38;100.00;101317.53;6276188;28;20513;-69
2023/09/13 11:15:50;;;;;;;2.70;1.10;;;;;;;15.15;100.00;101308.41;6275937;28;20599;-70
2023/09/13 11:18:53;;;;;;;3.35;1.33;;;;;;;15.18;100.00;101319.66;6275772;28;20554;-70
2023/09/13 11:22:00;;;;;;;4.93;1.48;;;;;;;15.20;100.00;101325.69;6275267;28;20049;-70
2023/09/13 11:25:08;;;;;;;3.10;1.10;;;;;;;15.17;100.00;101332.97;6275672;28;20119;-70
2023/09/13 11:28:28;;;;;;;4.73;1.57;;;;;;;14.97;100.00;101345.69;6275539;28;20356;-69
2023/09/13 11:31:31;;;;;;;3.15;1.23;;;;;;;14.93;100.00;101352.09;6275898;28;20056;-70
2023/09/13 11:34:34;;;;;;;3.05;0.85;;;;;;;14.84;100.00;101365.91;6275593;28;20053;-70
2023/09/13 11:37:36;;;;;;;2.08;1.08;;;;;;;14.85;100.00;101361.47;6275918;28;20053;-69
2023/09/13 11:40:38;;;;;;;1.65;0.82;;;;;;;14.93;100.00;101380.38;6275008;28;20337;-69
2023/09/13 11:43:41;;;;;;;2.53;1.10;;;;;;;14.64;100.00;101384.78;6275545;28;20460;-70
2023/09/13 11:46:44;;;;;;;1.75;1.00;;;;;;;14.59;100.00;101389.53;6274425;28;20048;-70
2023/09/13 11:49:45;;;;;;;7.10;1.58;;;;;;;14.50;100.00;101393.56;6275041;28;20106;-70
2023/09/13 11:53:10;;;;;;;4.85;1.08;;;;;;;14.47;100.00;101402.47;6275292;28;20071;-70
2023/09/13 11:56:36;;;;;;;3.13;1.70;;;;;;;14.31;100.00;101407.00;6272481;28;20190;-70
2023/09/13 11:59:37;;;;;;;7.68;1.27;;;;;;;14.26;100.00;101410.81;6275174;28;20338;-69
2023/09/13 12:02:43;;;;;;;6.28;1.92;;;;;;;14.38;100.00;101413.59;6275419;28;20052;-70
2023/09/13 12:05:46;;;;;;;4.22;1.27;;;;;;;14.25;100.00;101423.19;6269522;28;20133;-70
2023/09/13 12:08:49;;;;;;;4.32;1.52;;;;;;;14.46;100.00;101432.53;6268030;28;20140;-71
2023/09/13 12:11:53;;;;;;;4.80;1.25;;;;;;;14.32;100.00;101434.28;6269461;28;20081;-71
2023/09/13 12:14:54;;;;;;;4.15;1.35;;;;;;;14.32;100.00;101436.91;6266529;28;20053;-73
2023/09/13 12:18:01;;;;;;;2.28;1.20;;;;;;;14.51;100.00;101439.38;6261576;28;20048;-71
2023/09/13 12:21:03;;;;;;;6.13;1.55;;;;;;;14.66;100.00;101441.94;6262647;28;20095;-72
2023/09/13 12:24:08;;;;;;;8.18;1.83;;;;;;;14.86;100.00;101461.94;6273029;28;20049;-71
2023/09/13 12:27:10;;;;;;;3.00;1.33;;;;;;;14.91;100.00;101459.88;6272449;28;20041;-73
2023/09/13 12:30:17;;;;;;;3.75;1.40;;;;;;;15.03;100.00;101468.84;6270983;28;20052;-72
2023/09/13 12:33:18;;;;;;;5.38;2.95;;;;;;;14.73;100.00;101482.13;6275030;28;20049;-72
2023/09/13 12:36:21;;;;;;;4.38;1.20;;;;;;;14.27;100.00;101490.06;6274674;28;20076;-75
2023/09/13 12:39:23;;;;;;;1.60;0.90;;;;;;;13.81;100.00;101503.19;6272880;28;20041;-74
2023/09/13 12:42:25;;;;;;;4.60;1.17;;;;;;;13.67;100.00;101496.03;6270008;28;20589;-72
2023/09/13 12:45:30;;;;;;;3.67;1.25;;;;;;;13.70;100.00;101489.72;6269096;28;20048;-73
2023/09/13 12:48:32;;;;;;;2.00;1.02;;;;;;;13.84;100.00;101487.16;6264871;28;20041;-74
2023/09/13 12:51:34;;;;;;;3.95;1.38;;;;;;;13.91;100.00;101487.69;6256655;28;20045;-70
2023/09/13 12:54:39;;;;;;;2.92;1.23;;;;;;;14.21;100.00;101487.75;6269331;28;20052;-70
2023/09/13 12:57:41;;;;;;;2.65;1.63;;;;;;;14.45;100.00;101488.16;6258729;28;20142;-70
2023/09/13 13:00:50;;;;;;;3.92;1.50;;;;;;;14.45;100.00;101493.44;6271353;28;20369;-70
2023/09/13 13:03:56;;;;;;;3.63;1.00;;;;;;;14.24;100.00;101492.88;6272737;28;20119;-70
2023/09/13 13:07:02;;;;;;;6.88;1.40;;;;;;;14.25;100.00;101493.72;6270162;28;20349;-71
2023/09/13 13:10:06;;;;;;;5.85;1.60;;;;;;;13.91;100.00;101495.63;6265978;28;20433;-72
2023/09/13 13:13:07;;;;;;;3.90;1.20;;;;;;;14.02;100.00;101511.72;6278637;28;20132;-73
2023/09/13 13:16:14;;;;;;;1.23;0.90;;;;;;;13.90;100.00;101512.41;6276898;28;20037;-71
2023/09/13 13:19:16;;;;;;;10.18;1.90;;;;;;;13.94;100.00;101517.44;6278794;28;20041;-72
2023/09/13 13:22:18;;;;;;;4.43;1.45;;;;;;;14.03;100.00;101528.44;6278727;28;20051;-72
2023/09/13 13:25:21;;;;;;;1.80;1.10;;;;;;;14.24;100.00;101527.25;6278841;28;20091;-71
2023/09/13 13:28:22;;;;;;;2.30;1.08;;;;;;;14.39;100.00;101529.00;6278479;28;20453;-72
2023/09/13 13:31:23;;;;;;;1.65;1.00;;;;;;;14.16;100.00;101535.59;6278631;28;20326;-71
2023/09/13 13:34:25;;;;;;;3.85;1.88;;;;;;;14.20;100.00;101526.56;6278607;28;20056;-72
2023/09/13 13:37:26;;;;;;;3.40;1.45;;;;;;;14.45;100.00;101533.13;6268937;28;20167;-71
2023/09/13 13:40:29;;;;;;;6.20;1.50;;;;;;;14.37;100.00;101535.34;6267604;28;20342;-71
2023/09/13 13:43:30;;;;;;;1.88;1.10;;;;;;;14.46;100.00;101545.41;6270213;28;20048;-71
2023/09/13 13:46:32;;;;;;;1.98;1.30;;;;;;;14.41;100.00;101539.53;6269600;28;20049;-71
2023/09/13 13:49:33;;;;;;;2.20;1.15;;;;;;;14.38;100.00;101535.25;6264854;28;20543;-71
2023/09/13 13:52:35;;;;;;;1.80;1.17;;;;;;;14.51;100.00;101539.88;6273673;28;20052;-70
2023/09/13 13:55:38;;;;;;;1.83;1.10;;;;;;;14.44;100.00;101542.84;6272983;28;20048;-71